Time,TemperatureF,DewpointF,PressureIn,WindDirection,WindDirectionDegrees,WindSpeedMPH,WindSpeedGustMPH,Humidity,HourlyPrecipIn,Conditions,Clouds,dailyrainin,SolarRadiationWatts/m^2,SoftwareType,DateUTC
2013-07-16 13:11:00,89.0,67.0,-100.00,South,187,6.0,12.0,49,-99.99,,,0.00,973.000000,,2013-07-16 18:11:00,
2013-07-16 13:22:00,89.0,67.0,-100.00,South,187,6.0,12.0,49,-99.99,,,0.00,973.000000,,2013-07-16 18:22:00,
2013-07-16 13:32:00,89.0,67.0,-100.00,South,187,6.0,12.0,49,-99.99,,,0.00,973.000000,,2013-07-16 18:32:00,
2013-07-16 13:43:00,89.0,67.0,-100.00,South,187,6.0,12.0,49,-99.99,,,0.00,973.000000,,2013-07-16 18:43:00,
2013-07-16 14:11:00,91.0,68.0,-100.00,South,191,5.0,12.0,47,0.00,,,0.00,1019.000000,,2013-07-16 19:11:00,
2013-07-16 14:22:00,91.0,68.0,-100.00,South,191,5.0,12.0,47,0.00,,,0.00,1019.000000,,2013-07-16 19:22:00,
2013-07-16 14:32:00,91.0,68.0,-100.00,South,191,5.0,12.0,47,0.00,,,0.00,1019.000000,,2013-07-16 19:32:00,
2013-07-16 14:43:00,91.0,68.0,-100.00,South,191,5.0,12.0,47,0.00,,,0.00,1019.000000,,2013-07-16 19:43:00,
2013-07-16 15:11:00,92.0,69.0,-100.00,SSE,160,4.0,12.0,47,0.00,,,0.00,928.000000,,2013-07-16 20:11:00,
2013-07-16 15:22:00,92.0,69.0,-100.00,SSE,160,4.0,12.0,47,0.00,,,0.00,928.000000,,2013-07-16 20:22:00,
2013-07-16 15:32:00,92.0,69.0,-100.00,SSE,160,4.0,12.0,47,0.00,,,0.00,928.000000,,2013-07-16 20:32:00,
2013-07-16 15:43:00,92.0,69.0,-100.00,SSE,160,4.0,12.0,47,0.00,,,0.00,928.000000,,2013-07-16 20:43:00,
2013-07-16 16:11:00,93.0,68.0,-100.00,SE,137,3.0,10.0,45,0.00,,,0.00,933.000000,,2013-07-16 21:11:00,
2013-07-16 16:22:00,93.0,68.0,-100.00,SE,137,3.0,10.0,45,0.00,,,0.00,933.000000,,2013-07-16 21:22:00,
2013-07-16 16:32:00,93.0,68.0,-100.00,SE,137,3.0,10.0,45,0.00,,,0.00,933.000000,,2013-07-16 21:32:00,
2013-07-16 16:43:00,93.0,68.0,-100.00,SE,137,3.0,10.0,45,0.00,,,0.00,933.000000,,2013-07-16 21:43:00,
2013-07-16 17:11:00,89.0,68.0,-100.00,SSE,161,3.0,9.0,51,0.00,,,0.00,512.000000,,2013-07-16 22:11:00,
2013-07-16 17:22:00,89.0,68.0,-100.00,SSE,161,3.0,9.0,51,0.00,,,0.00,512.000000,,2013-07-16 22:22:00,
2013-07-16 17:33:00,89.0,68.0,-100.00,SSE,161,3.0,9.0,51,0.00,,,0.00,512.000000,,2013-07-16 22:33:00,
2013-07-16 17:43:00,89.0,68.0,-100.00,SSE,161,3.0,9.0,51,0.00,,,0.00,512.000000,,2013-07-16 22:43:00,
2013-07-16 18:11:00,91.0,69.0,-100.00,SSW,194,6.0,9.0,48,0.00,,,0.00,597.000000,,2013-07-16 23:11:00,
2013-07-16 18:22:00,91.0,69.0,-100.00,SSW,194,6.0,9.0,48,0.00,,,0.00,597.000000,,2013-07-16 23:22:00,
2013-07-16 18:32:00,91.0,69.0,-100.00,SSW,194,6.0,9.0,48,0.00,,,0.00,597.000000,,2013-07-16 23:32:00,
2013-07-16 18:43:00,91.0,69.0,-100.00,SSW,194,6.0,9.0,48,0.00,,,0.00,597.000000,,2013-07-16 23:43:00,
2013-07-16 19:11:00,91.0,69.0,-100.00,SSE,163,2.0,8.0,49,0.00,,,0.00,418.000000,,2013-07-17 00:11:00,
2013-07-16 19:22:00,91.0,69.0,-100.00,SSE,163,2.0,8.0,49,0.00,,,0.00,418.000000,,2013-07-17 00:22:00,
2013-07-16 19:33:00,91.0,69.0,-100.00,SSE,163,2.0,8.0,49,0.00,,,0.00,418.000000,,2013-07-17 00:33:00,
2013-07-16 19:42:00,91.0,69.0,-100.00,SSE,163,2.0,8.0,49,0.00,,,0.00,418.000000,,2013-07-17 00:42:00,
2013-07-16 20:11:00,90.0,72.0,-100.00,SSE,165,1.0,6.0,55,0.00,,,0.00,245.000000,,2013-07-17 01:11:00,
2013-07-16 20:22:00,90.0,72.0,-100.00,SSE,165,1.0,6.0,55,0.00,,,0.00,245.000000,,2013-07-17 01:22:00,
2013-07-16 20:32:00,90.0,72.0,-100.00,SSE,165,1.0,6.0,55,0.00,,,0.00,245.000000,,2013-07-17 01:32:00,
2013-07-16 20:43:00,90.0,72.0,-100.00,SSE,165,1.0,6.0,55,0.00,,,0.00,245.000000,,2013-07-17 01:43:00,
2013-07-16 21:11:00,82.0,70.0,-100.00,SSE,167,0.0,2.0,67,0.00,,,0.00,67.000000,,2013-07-17 02:11:00,
2013-07-16 21:22:00,82.0,70.0,-100.00,SSE,167,0.0,2.0,67,0.00,,,0.00,67.000000,,2013-07-17 02:22:00,
2013-07-16 21:32:00,82.0,70.0,-100.00,SSE,167,0.0,2.0,67,0.00,,,0.00,67.000000,,2013-07-17 02:32:00,
2013-07-16 21:43:00,82.0,70.0,-100.00,SSE,167,0.0,2.0,67,0.00,,,0.00,67.000000,,2013-07-17 02:43:00,
2013-07-16 22:11:00,78.0,71.0,-100.00,ESE,122,0.0,2.0,78,0.00,,,0.00,2.000000,,2013-07-17 03:11:00,
2013-07-16 22:22:00,78.0,71.0,-100.00,ESE,122,0.0,2.0,78,0.00,,,0.00,2.000000,,2013-07-17 03:22:00,
2013-07-16 22:32:00,78.0,71.0,-100.00,ESE,122,0.0,2.0,78,0.00,,,0.00,2.000000,,2013-07-17 03:32:00,
2013-07-16 22:43:00,78.0,71.0,-100.00,ESE,122,0.0,2.0,78,0.00,,,0.00,2.000000,,2013-07-17 03:43:00,
2013-07-16 23:11:00,75.0,69.0,-100.00,SSW,198,0.0,2.0,82,0.00,,,-99.99,0.000000,,2013-07-17 04:11:00,
2013-07-16 23:22:00,75.0,69.0,-100.00,SSW,198,0.0,2.0,82,0.00,,,-99.99,0.000000,,2013-07-17 04:22:00,
2013-07-16 23:32:00,75.0,69.0,-100.00,SSW,198,0.0,2.0,82,0.00,,,-99.99,0.000000,,2013-07-17 04:32:00,
2013-07-16 23:43:00,75.0,69.0,-100.00,SSW,198,0.0,2.0,82,0.00,,,-99.99,0.000000,,2013-07-17 04:43:00,